createdAt,value
2018-12-30T00:00:30.789Z,92.60
2018-12-30T00:03:00.167Z,90.80
2018-12-30T00:05:29.525Z,90.00
2018-12-30T00:07:58.921Z,92.80
2018-12-30T00:10:27.967Z,93.80
2018-12-30T00:12:56.957Z,94.00
2018-12-30T00:15:26.526Z,93.80
2018-12-30T00:17:55.550Z,91.80
2018-12-30T00:20:24.614Z,93.60
2018-12-30T00:22:53.685Z,93.80
2018-12-30T00:25:22.701Z,94.60
2018-12-30T00:27:52.125Z,93.40
2018-12-30T00:30:21.136Z,94.80
2018-12-30T00:32:50.209Z,93.20
2018-12-30T00:35:19.221Z,94.40
2018-12-30T00:37:48.249Z,92.20
2018-12-30T00:40:17.291Z,93.80
2018-12-30T00:42:46.286Z,93.80
2018-12-30T00:45:15.356Z,93.80
2018-12-30T00:47:44.361Z,93.00
2018-12-30T00:50:13.461Z,93.00
2018-12-30T00:52:42.470Z,90.80
2018-12-30T00:55:11.834Z,91.60
2018-12-30T00:57:40.814Z,91.00
2018-12-30T01:00:10.070Z,93.00
2018-12-30T01:02:39.095Z,92.80
2018-12-30T01:05:08.171Z,94.00
2018-12-30T01:07:37.253Z,90.80
2018-12-30T01:10:07.816Z,90.60
2018-12-30T01:12:36.779Z,89.80
2018-12-30T01:15:06.311Z,90.60
2018-12-30T01:17:35.326Z,90.60
2018-12-30T01:20:04.495Z,92.40
2018-12-30T01:22:34.948Z,92.80
2018-12-30T01:25:04.237Z,90.60
2018-12-30T01:27:33.309Z,92.40
2018-12-30T01:30:02.343Z,93.60
2018-12-30T01:32:31.361Z,93.20
2018-12-30T01:35:00.807Z,90.60
2018-12-30T01:37:29.879Z,93.60
2018-12-30T01:39:58.900Z,91.80
2018-12-30T01:42:29.924Z,90.80
2018-12-30T01:44:59.010Z,92.40
2018-12-30T01:47:28.332Z,94.00
2018-12-30T01:49:57.320Z,93.80
2018-12-30T01:52:26.385Z,92.20
2018-12-30T01:54:55.484Z,93.00
2018-12-30T01:57:24.491Z,94.00
2018-12-30T01:59:53.856Z,92.40
2018-12-30T02:02:22.914Z,94.00
2018-12-30T02:04:52.038Z,93.20
2018-12-30T02:07:21.020Z,92.00
2018-12-30T02:09:50.071Z,92.80
2018-12-30T02:12:19.414Z,92.20
2018-12-30T02:14:48.525Z,92.60
2018-12-30T02:17:17.519Z,90.40
2018-12-30T02:19:46.602Z,91.20
2018-12-30T02:22:15.601Z,91.80
2018-12-30T02:24:45.010Z,92.40
2018-12-30T02:27:13.981Z,91.40
2018-12-30T02:29:43.063Z,94.00
2018-12-30T02:32:12.099Z,94.40
2018-12-30T02:34:41.071Z,93.80
2018-12-30T02:37:10.236Z,92.00
2018-12-30T02:39:39.243Z,92.00
2018-12-30T02:42:08.268Z,93.40
2018-12-30T02:44:37.272Z,94.20
2018-12-30T02:47:06.312Z,90.20
2018-12-30T02:49:35.570Z,94.40
2018-12-30T02:52:04.585Z,93.00
2018-12-30T02:54:33.700Z,91.40
2018-12-30T02:57:02.836Z,93.00
2018-12-30T02:59:31.828Z,89.20
2018-12-30T03:02:01.424Z,93.00
2018-12-30T03:04:30.569Z,93.80
2018-12-30T03:06:59.618Z,91.80
2018-12-30T03:09:28.598Z,90.20
2018-12-30T03:11:57.586Z,91.80
2018-12-30T03:14:26.669Z,90.80
2018-12-30T03:16:55.699Z,89.80
2018-12-30T03:19:24.722Z,89.80
2018-12-30T03:21:59.116Z,90.40
2018-12-30T03:24:24.551Z,91.40
2018-12-30T03:26:53.612Z,90.60
2018-12-30T03:29:22.656Z,93.00
2018-12-30T03:31:51.655Z,93.00
2018-12-30T03:34:20.635Z,93.20
2018-12-30T03:36:49.747Z,92.40
2018-12-30T03:39:18.746Z,91.80
2018-12-30T03:41:47.744Z,91.00
2018-12-30T03:44:16.764Z,92.60
2018-12-30T03:46:45.731Z,90.60
2018-12-30T03:49:14.806Z,90.80
2018-12-30T03:51:43.835Z,91.80
2018-12-30T03:54:12.846Z,93.80
2018-12-30T03:56:41.939Z,92.40
2018-12-30T03:59:10.963Z,91.80
2018-12-30T04:01:39.978Z,93.40
2018-12-30T04:04:08.987Z,92.20
2018-12-30T04:06:38.130Z,91.00
2018-12-30T04:09:07.931Z,91.80
2018-12-30T04:11:36.921Z,90.00
2018-12-30T04:14:05.940Z,91.80
2018-12-30T04:16:34.967Z,94.00
2018-12-30T04:19:04.042Z,93.40
2018-12-30T04:21:33.048Z,93.80
2018-12-30T04:24:02.038Z,93.20
2018-12-30T04:26:31.065Z,91.40
2018-12-30T04:29:00.070Z,94.00
2018-12-30T04:31:29.059Z,91.80
2018-12-30T04:33:58.127Z,90.80
2018-12-30T04:36:27.092Z,90.60
2018-12-30T04:38:56.084Z,91.60
2018-12-30T04:41:25.120Z,93.80
2018-12-30T04:43:54.211Z,91.80
2018-12-30T04:46:23.232Z,90.80
2018-12-30T04:48:52.246Z,92.00
2018-12-30T04:51:21.255Z,90.80
2018-12-30T04:53:50.244Z,92.40
2018-12-30T04:56:19.281Z,90.00
2018-12-30T04:58:48.307Z,92.40
2018-12-30T05:01:17.310Z,94.00
2018-12-30T05:03:46.338Z,93.00
2018-12-30T05:06:15.326Z,94.00
2018-12-30T05:08:44.325Z,92.00
2018-12-30T05:11:13.308Z,93.20
2018-12-30T05:13:42.301Z,92.60
2018-12-30T05:16:11.302Z,93.60
2018-12-30T05:18:40.305Z,90.80
2018-12-30T05:21:09.311Z,93.80
2018-12-30T05:23:38.307Z,90.20
2018-12-30T05:26:07.322Z,90.80
2018-12-30T05:28:36.384Z,93.20
2018-12-30T05:31:05.540Z,91.20
2018-12-30T05:33:34.547Z,90.60
2018-12-30T05:36:03.575Z,92.60
2018-12-30T05:38:32.581Z,93.20
2018-12-30T05:41:01.607Z,91.40
2018-12-30T05:43:30.680Z,93.40
2018-12-30T05:45:59.668Z,95.80
2018-12-30T05:48:28.722Z,91.60
2018-12-30T05:50:57.734Z,93.80
2018-12-30T05:53:26.788Z,90.60
2018-12-30T05:55:55.774Z,93.00
2018-12-30T05:58:24.836Z,92.40
2018-12-30T06:00:53.850Z,91.00
2018-12-30T06:03:22.845Z,92.00
2018-12-30T06:05:51.904Z,90.40
2018-12-30T06:08:20.895Z,91.40
2018-12-30T06:10:49.912Z,90.60
2018-12-30T06:13:18.907Z,90.60
2018-12-30T06:15:47.907Z,90.60
2018-12-30T06:18:16.929Z,91.00
2018-12-30T06:20:45.933Z,91.80
2018-12-30T06:23:14.916Z,90.00
2018-12-30T06:25:45.438Z,92.00
2018-12-30T06:28:14.524Z,92.40
2018-12-30T06:30:43.549Z,93.60
2018-12-30T06:33:12.573Z,91.80
2018-12-30T06:35:41.584Z,89.40
2018-12-30T06:38:10.598Z,90.00
2018-12-30T06:40:39.601Z,90.00
2018-12-30T06:43:08.595Z,90.40
2018-12-30T06:45:37.572Z,90.80
2018-12-30T06:48:06.613Z,91.00
2018-12-30T06:50:35.593Z,92.20
2018-12-30T06:53:04.585Z,92.20
2018-12-30T06:55:33.610Z,91.80
2018-12-30T06:58:02.587Z,91.00
2018-12-30T07:00:31.617Z,89.20
2018-12-30T07:03:00.651Z,90.80
2018-12-30T07:05:29.688Z,90.60
2018-12-30T07:07:58.708Z,88.80
2018-12-30T07:10:27.741Z,91.00
2018-12-30T07:12:56.735Z,90.80
2018-12-30T07:15:25.708Z,91.00
2018-12-30T07:17:54.724Z,90.60
2018-12-30T07:20:23.728Z,90.60
2018-12-30T07:22:52.716Z,91.20
2018-12-30T07:25:21.802Z,93.80
2018-12-30T07:27:50.778Z,91.80
2018-12-30T07:30:19.743Z,90.00
2018-12-30T07:32:48.790Z,88.80
2018-12-30T07:35:17.760Z,90.60
2018-12-30T07:37:46.778Z,90.60
2018-12-30T07:40:15.796Z,88.40
2018-12-30T07:42:44.791Z,90.80
2018-12-30T07:45:13.814Z,90.00
2018-12-30T07:47:42.826Z,89.40
2018-12-30T07:50:11.800Z,88.40
2018-12-30T07:52:40.872Z,90.20
2018-12-30T07:55:09.858Z,90.80
2018-12-30T07:57:38.846Z,88.80
2018-12-30T08:00:08.179Z,88.00
2018-12-30T08:02:37.189Z,90.00
2018-12-30T08:05:06.406Z,89.60
2018-12-30T08:07:35.403Z,86.80
2018-12-30T08:10:04.847Z,87.80
2018-12-30T08:12:33.947Z,88.00
2018-12-30T08:15:02.938Z,89.60
2018-12-30T08:17:31.989Z,86.20
2018-12-30T08:20:00.976Z,90.40
2018-12-30T08:22:29.965Z,90.00
2018-12-30T08:24:59.001Z,91.00
2018-12-30T08:27:28.020Z,90.60
2018-12-30T08:29:57.015Z,90.00
2018-12-30T08:32:26.030Z,90.60
2018-12-30T08:34:55.011Z,88.20
2018-12-30T08:37:24.011Z,91.80
2018-12-30T08:39:53.008Z,88.00
2018-12-30T08:42:22.016Z,89.20
2018-12-30T08:44:51.003Z,91.00
2018-12-30T08:47:20.094Z,90.20
2018-12-30T08:49:49.074Z,91.60
2018-12-30T08:52:18.086Z,88.00
2018-12-30T08:54:47.297Z,91.00
2018-12-30T08:57:16.304Z,88.80
2018-12-30T08:59:45.293Z,90.60
2018-12-30T09:02:14.320Z,89.40
2018-12-30T09:04:43.323Z,89.20
2018-12-30T09:07:12.335Z,88.00
2018-12-30T09:09:41.453Z,89.80
2018-12-30T09:12:10.530Z,89.40
2018-12-30T09:14:39.586Z,88.00
2018-12-30T09:17:08.598Z,88.80
2018-12-30T09:19:37.599Z,91.80
2018-12-30T09:22:06.608Z,92.40
2018-12-30T09:24:35.609Z,90.60
2018-12-30T09:27:04.634Z,90.60
2018-12-30T09:29:33.726Z,91.40
2018-12-30T09:32:02.751Z,90.60
2018-12-30T09:34:31.792Z,91.00
2018-12-30T09:37:00.792Z,91.00
2018-12-30T09:39:29.819Z,92.00
2018-12-30T09:41:58.882Z,91.80
2018-12-30T09:44:27.882Z,92.40
2018-12-30T09:46:56.944Z,90.60
2018-12-30T09:49:25.916Z,93.60
2018-12-30T09:51:54.888Z,94.00
2018-12-30T09:54:23.934Z,92.40
2018-12-30T09:56:52.924Z,93.80
2018-12-30T09:59:21.941Z,91.80
2018-12-30T10:01:50.952Z,94.00
2018-12-30T10:04:19.979Z,91.40
2018-12-30T10:06:48.980Z,94.00
2018-12-30T10:09:17.997Z,93.60
2018-12-30T10:11:47.090Z,93.60
2018-12-30T10:14:16.076Z,97.00
2018-12-30T10:16:45.334Z,93.60
2018-12-30T10:19:14.719Z,94.00
2018-12-30T10:21:43.735Z,94.00
2018-12-30T10:24:12.784Z,94.00
2018-12-30T10:26:41.865Z,97.80
2018-12-30T10:29:10.834Z,94.80
2018-12-30T10:31:39.861Z,94.40
2018-12-30T10:34:08.853Z,99.40
2018-12-30T10:36:37.865Z,94.80
2018-12-30T10:39:07.255Z,96.80
2018-12-30T10:41:36.229Z,94.80
2018-12-30T10:44:05.638Z,97.40
2018-12-30T10:46:34.663Z,96.80
2018-12-30T10:49:03.734Z,95.60
2018-12-30T10:51:32.736Z,99.40
2018-12-30T10:54:01.748Z,99.80
2018-12-30T10:56:30.863Z,96.80
2018-12-30T10:58:59.846Z,100.80
2018-12-30T11:01:28.882Z,98.20
2018-12-30T11:03:57.866Z,99.80
2018-12-30T11:06:26.880Z,99.00
2018-12-30T11:08:55.962Z,98.60
2018-12-30T11:11:25.815Z,99.60
2018-12-30T11:13:54.803Z,99.60
2018-12-30T11:16:24.012Z,97.80
2018-12-30T11:18:53.030Z,99.40
2018-12-30T11:21:22.096Z,99.60
2018-12-30T11:23:51.225Z,96.80
2018-12-30T11:26:20.302Z,99.20
2018-12-30T11:28:49.350Z,99.80
2018-12-30T11:31:18.450Z,97.80
2018-12-30T11:33:47.430Z,97.80
2018-12-30T11:36:17.600Z,99.20
2018-12-30T11:38:46.785Z,100.00
2018-12-30T11:41:15.786Z,97.80
2018-12-30T11:43:44.866Z,100.80
2018-12-30T11:46:13.885Z,101.00
2018-12-30T11:48:42.877Z,101.20
2018-12-30T11:51:11.851Z,98.40
2018-12-30T11:53:41.208Z,102.60
2018-12-30T11:56:10.347Z,99.60
2018-12-30T11:58:39.376Z,102.20
2018-12-30T12:01:08.476Z,101.20
2018-12-30T12:03:37.465Z,99.80
2018-12-30T12:06:06.565Z,99.80
2018-12-30T12:08:35.643Z,102.00
2018-12-30T12:11:04.738Z,104.60
2018-12-30T12:13:33.777Z,99.60
2018-12-30T12:16:02.788Z,99.80
2018-12-30T12:18:31.792Z,103.80
2018-12-30T12:21:00.872Z,103.00
2018-12-30T12:23:29.907Z,102.40
2018-12-30T12:25:58.890Z,99.20
2018-12-30T12:28:27.888Z,98.80
2018-12-30T12:30:56.910Z,100.80
2018-12-30T12:33:25.914Z,99.60
2018-12-30T12:35:54.944Z,101.80
2018-12-30T12:38:23.968Z,101.20
2018-12-30T12:40:52.991Z,99.80
2018-12-30T12:43:21.992Z,99.80
2018-12-30T12:45:51.023Z,100.80
2018-12-30T12:48:20.024Z,102.60
2018-12-30T12:50:48.994Z,102.20
2018-12-30T12:53:18.023Z,103.00
2018-12-30T12:55:47.102Z,100.40
2018-12-30T12:58:16.253Z,102.00
2018-12-30T13:00:45.344Z,103.80
2018-12-30T13:03:14.414Z,102.80
2018-12-30T13:05:43.403Z,102.60
2018-12-30T13:08:12.452Z,100.80
2018-12-30T13:10:41.431Z,103.00
2018-12-30T13:13:10.471Z,102.80
2018-12-30T13:15:39.484Z,102.60
2018-12-30T13:18:08.508Z,104.20
2018-12-30T13:20:37.525Z,102.20
2018-12-30T13:23:06.544Z,104.00
2018-12-30T13:25:35.525Z,102.80
2018-12-30T13:28:04.625Z,101.40
2018-12-30T13:30:33.625Z,103.20
2018-12-30T13:33:03.115Z,101.40
2018-12-30T13:35:32.148Z,97.80
2018-12-30T13:38:01.209Z,106.20
2018-12-30T13:40:30.219Z,105.00
2018-12-30T13:42:59.286Z,105.00
2018-12-30T13:45:28.466Z,102.80
2018-12-30T13:47:57.484Z,103.00
2018-12-30T13:50:26.501Z,103.00
2018-12-30T13:52:55.486Z,100.60
2018-12-30T13:55:24.461Z,104.00
2018-12-30T13:57:53.562Z,104.40
2018-12-30T14:00:22.651Z,101.80
2018-12-30T14:02:51.652Z,103.40
2018-12-30T14:05:20.683Z,102.40
2018-12-30T14:07:49.734Z,105.40
2018-12-30T14:10:18.747Z,105.40
2018-12-30T14:12:47.822Z,105.60
2018-12-30T14:15:16.841Z,106.00
2018-12-30T14:17:46.615Z,106.80
2018-12-30T14:20:15.709Z,102.80
2018-12-30T14:22:44.828Z,103.00
2018-12-30T14:25:13.828Z,105.80
2018-12-30T14:27:42.859Z,106.40
2018-12-30T14:30:11.958Z,102.60
2018-12-30T14:32:41.038Z,103.00
2018-12-30T14:35:10.215Z,104.00
2018-12-30T14:37:39.313Z,105.00
2018-12-30T14:40:08.483Z,102.60
2018-12-30T14:42:37.499Z,97.40
2018-12-30T14:45:07.717Z,103.20
2018-12-30T14:47:36.769Z,108.40
2018-12-30T14:50:07.837Z,106.00
2018-12-30T14:52:36.948Z,107.20
2018-12-30T14:55:06.305Z,109.80
2018-12-30T14:57:35.350Z,103.80
2018-12-30T15:00:04.608Z,103.00
2018-12-30T15:02:33.643Z,106.40
2018-12-30T15:05:02.678Z,104.20
2018-12-30T15:07:31.692Z,106.80
2018-12-30T15:10:00.759Z,106.80
2018-12-30T15:12:29.778Z,105.80
2018-12-30T15:14:58.789Z,105.60
2018-12-30T15:17:27.794Z,108.80
2018-12-30T15:19:56.861Z,122.80
2018-12-30T15:22:25.884Z,113.20
2018-12-30T15:24:54.886Z,112.40
2018-12-30T15:27:23.980Z,110.40
2018-12-30T15:29:53.039Z,107.00
2018-12-30T15:32:22.110Z,107.40
2018-12-30T15:34:51.148Z,109.40
2018-12-30T15:37:20.141Z,107.00
2018-12-30T15:39:49.188Z,108.20
2018-12-30T15:42:19.048Z,106.80
2018-12-30T15:44:48.237Z,110.20
2018-12-30T15:47:17.284Z,107.00
2018-12-30T15:49:46.270Z,107.80
2018-12-30T15:52:15.297Z,109.00
2018-12-30T15:54:44.321Z,108.00
2018-12-30T15:57:13.395Z,111.20
2018-12-30T15:59:42.470Z,107.40
2018-12-30T16:02:11.569Z,108.20
2018-12-30T16:04:40.604Z,111.00
2018-12-30T16:07:09.608Z,114.60
2018-12-30T16:09:38.640Z,111.00
2018-12-30T16:12:07.752Z,111.40
2018-12-30T16:14:36.737Z,111.40
2018-12-30T16:17:05.826Z,108.20
2018-12-30T16:19:34.853Z,111.00
2018-12-30T16:22:04.217Z,110.80
2018-12-30T16:24:33.357Z,114.00
2018-12-30T16:27:02.468Z,111.20
2018-12-30T16:29:31.578Z,110.60
2018-12-30T16:32:00.592Z,114.00
2018-12-30T16:34:29.722Z,114.00
2018-12-30T16:36:58.844Z,112.00
2018-12-30T16:39:27.859Z,110.20
2018-12-30T16:41:57.928Z,106.80
2018-12-30T16:44:27.307Z,111.40
2018-12-30T16:46:56.420Z,111.00
2018-12-30T16:49:25.561Z,114.40
2018-12-30T16:51:55.607Z,112.80
2018-12-30T16:54:24.703Z,112.20
2018-12-30T16:56:53.923Z,112.00
2018-12-30T16:59:22.947Z,112.00
2018-12-30T17:01:52.024Z,114.00
2018-12-30T17:04:21.144Z,112.60
2018-12-30T17:06:50.173Z,108.40
2018-12-30T17:09:19.191Z,112.80
2018-12-30T17:11:48.220Z,111.20
2018-12-30T17:14:17.231Z,112.00
2018-12-30T17:16:46.250Z,107.40
2018-12-30T17:19:15.293Z,112.00
2018-12-30T17:21:44.366Z,112.00
2018-12-30T17:24:13.480Z,108.40
2018-12-30T17:26:42.621Z,110.60
2018-12-30T17:29:11.649Z,109.00
2018-12-30T17:31:40.639Z,107.20
2018-12-30T17:34:09.675Z,110.40
2018-12-30T17:36:38.654Z,108.60
2018-12-30T17:39:08.290Z,110.60
2018-12-30T17:41:37.322Z,111.40
2018-12-30T17:44:06.330Z,116.80
2018-12-30T17:46:35.413Z,113.00
2018-12-30T17:49:04.520Z,115.60
2018-12-30T17:51:33.523Z,113.60
2018-12-30T17:54:02.579Z,113.60
2018-12-30T17:56:31.657Z,112.00
2018-12-30T17:59:00.713Z,109.40
2018-12-30T18:01:29.755Z,112.00
2018-12-30T18:03:58.799Z,113.20
2018-12-30T18:06:27.848Z,111.80
2018-12-30T18:08:56.883Z,111.20
2018-12-30T18:11:28.317Z,115.00
2018-12-30T18:13:57.439Z,115.80
2018-12-30T18:16:26.440Z,110.00
2018-12-30T18:18:55.457Z,112.80
2018-12-30T18:21:24.453Z,114.00
2018-12-30T18:23:53.469Z,115.20
2018-12-30T18:26:22.556Z,110.20
2018-12-30T18:28:51.588Z,112.00
2018-12-30T18:31:20.679Z,114.60
2018-12-30T18:33:49.710Z,108.80
2018-12-30T18:36:20.030Z,114.80
2018-12-30T18:38:49.054Z,114.20
2018-12-30T18:41:18.118Z,108.00
2018-12-30T18:43:47.133Z,110.20
2018-12-30T18:46:16.129Z,117.20
2018-12-30T18:48:45.175Z,109.40
2018-12-30T18:51:14.177Z,114.80
2018-12-30T18:53:43.274Z,111.00
2018-12-30T18:56:12.379Z,109.40
2018-12-30T18:58:41.418Z,112.00
2018-12-30T19:01:10.422Z,110.20
2018-12-30T19:03:39.469Z,112.60
2018-12-30T19:06:08.567Z,111.40
2018-12-30T19:08:37.676Z,106.40
2018-12-30T19:11:06.715Z,111.40
2018-12-30T19:13:35.819Z,110.20
2018-12-30T19:16:04.851Z,108.20
2018-12-30T19:18:33.871Z,109.40
2018-12-30T19:21:02.897Z,109.20
2018-12-30T19:23:31.910Z,110.60
2018-12-30T19:26:01.384Z,110.60
2018-12-30T19:28:30.539Z,112.80
2018-12-30T19:30:59.573Z,112.60
2018-12-30T19:33:28.739Z,109.00
2018-12-30T19:35:57.767Z,106.40
2018-12-30T19:38:26.797Z,109.20
2018-12-30T19:40:55.830Z,110.20
2018-12-30T19:43:24.869Z,106.00
2018-12-30T19:45:53.899Z,109.80
2018-12-30T19:48:22.937Z,110.60
2018-12-30T19:50:51.959Z,110.00
2018-12-30T19:53:20.946Z,112.00
2018-12-30T19:55:50.068Z,108.80
2018-12-30T19:58:19.210Z,109.00
2018-12-30T20:00:48.286Z,109.00
2018-12-30T20:03:17.336Z,110.60
2018-12-30T20:05:46.343Z,115.00
2018-12-30T20:08:15.315Z,112.60
2018-12-30T20:10:44.367Z,114.60
2018-12-30T20:13:13.449Z,113.20
2018-12-30T20:15:42.450Z,114.00
2018-12-30T20:18:11.502Z,113.80
2018-12-30T20:20:40.595Z,112.40
2018-12-30T20:23:09.594Z,109.20
2018-12-30T20:25:38.676Z,114.20
2018-12-30T20:28:07.755Z,109.00
2018-12-30T20:30:36.812Z,110.20
2018-12-30T20:33:06.646Z,110.60
2018-12-30T20:35:35.841Z,106.40
2018-12-30T20:38:04.849Z,111.00
2018-12-30T20:40:33.901Z,106.40
2018-12-30T20:43:02.977Z,109.80
2018-12-30T20:45:31.993Z,111.60
2018-12-30T20:48:01.102Z,110.80
2018-12-30T20:50:30.124Z,111.60
2018-12-30T20:52:59.165Z,112.00
2018-12-30T20:55:28.257Z,109.40
2018-12-30T20:57:57.386Z,113.00
2018-12-30T21:00:26.475Z,114.80
2018-12-30T21:02:55.508Z,110.20
2018-12-30T21:05:24.660Z,112.40
2018-12-30T21:07:53.739Z,113.60
2018-12-30T21:10:22.804Z,112.20
2018-12-30T21:12:54.168Z,111.20
2018-12-30T21:15:23.192Z,112.80
2018-12-30T21:17:52.235Z,114.60
2018-12-30T21:20:21.232Z,111.80
2018-12-30T21:22:50.252Z,111.80
2018-12-30T21:25:19.312Z,114.20
2018-12-30T21:27:48.415Z,108.60
2018-12-30T21:30:17.495Z,106.80
2018-12-30T21:32:46.534Z,109.40
2018-12-30T21:35:15.537Z,110.80
2018-12-30T21:37:44.544Z,112.00
2018-12-30T21:40:13.611Z,111.60
2018-12-30T21:42:43.828Z,115.80
2018-12-30T21:45:13.255Z,111.40
2018-12-30T21:47:42.319Z,113.40
2018-12-30T21:50:11.384Z,111.80
2018-12-30T21:52:40.407Z,114.20
2018-12-30T21:55:09.501Z,111.40
2018-12-30T21:57:38.553Z,112.20
2018-12-30T22:00:08.854Z,109.80
2018-12-30T22:02:37.836Z,113.60
2018-12-30T22:05:07.020Z,112.80
2018-12-30T22:07:36.107Z,112.00
2018-12-30T22:10:06.095Z,114.80
2018-12-30T22:12:35.111Z,111.20
2018-12-30T22:15:04.601Z,113.60
2018-12-30T22:17:33.639Z,113.80
2018-12-30T22:20:02.716Z,111.00
2018-12-30T22:22:31.747Z,110.40
2018-12-30T22:25:00.849Z,111.20
2018-12-30T22:27:29.890Z,114.00
2018-12-30T22:29:58.912Z,109.00
2018-12-30T22:32:28.005Z,112.00
2018-12-30T22:34:57.937Z,108.40
2018-12-30T22:37:26.979Z,111.40
2018-12-30T22:39:56.019Z,109.40
2018-12-30T22:42:32.630Z,107.60
2018-12-30T22:44:55.843Z,108.80
2018-12-30T22:47:24.850Z,113.20
2018-12-30T22:49:53.943Z,112.20
2018-12-30T22:52:22.958Z,108.60
2018-12-30T22:54:52.061Z,106.40
2018-12-30T22:57:21.071Z,107.80
2018-12-30T22:59:50.079Z,110.20
2018-12-30T23:02:19.072Z,111.20
2018-12-30T23:04:48.148Z,109.60
2018-12-30T23:07:17.261Z,105.80
2018-12-30T23:09:46.244Z,109.60
2018-12-30T23:12:15.362Z,110.20
2018-12-30T23:14:44.397Z,107.00
2018-12-30T23:17:13.430Z,110.80
2018-12-30T23:19:42.440Z,107.20
2018-12-30T23:22:11.501Z,106.40
2018-12-30T23:24:40.515Z,111.00
2018-12-30T23:27:09.629Z,109.60
2018-12-30T23:29:38.652Z,112.00
2018-12-30T23:32:07.657Z,110.80
2018-12-30T23:34:36.712Z,111.20
2018-12-30T23:37:05.842Z,109.00
2018-12-30T23:39:34.873Z,112.00
2018-12-30T23:42:03.965Z,107.80
2018-12-30T23:44:32.971Z,112.80
2018-12-30T23:47:01.988Z,112.00
2018-12-30T23:49:31.037Z,112.00
2018-12-30T23:52:00.059Z,109.00
2018-12-30T23:54:29.081Z,109.40
2018-12-30T23:56:58.113Z,111.80
2018-12-30T23:59:27.142Z,110.40
